createdAt,value
2018-04-02T00:02:16.521Z,10.48
2018-04-02T00:04:44.103Z,10.64
2018-04-02T00:07:11.688Z,10.61
2018-04-02T00:09:39.273Z,10.70
2018-04-02T00:12:06.897Z,10.61
2018-04-02T00:14:34.491Z,10.69
2018-04-02T00:17:02.092Z,10.78
2018-04-02T00:19:29.675Z,10.58
2018-04-02T00:21:57.282Z,10.68
2018-04-02T00:24:24.925Z,10.51
2018-04-02T00:26:52.895Z,10.28
2018-04-02T00:29:20.474Z,10.36
2018-04-02T00:31:48.259Z,10.26
2018-04-02T00:34:15.872Z,10.30
2018-04-02T00:36:43.455Z,10.38
2018-04-02T00:39:11.044Z,10.41
2018-04-02T00:41:38.702Z,10.26
2018-04-02T00:44:06.315Z,10.35
2018-04-02T00:46:33.895Z,10.21
2018-04-02T00:49:01.478Z,10.32
2018-04-02T00:51:29.063Z,10.25
2018-04-02T00:53:56.639Z,10.39
2018-04-02T00:56:24.271Z,10.41
2018-04-02T00:58:51.881Z,10.45
2018-04-02T01:01:19.506Z,10.45
2018-04-02T01:03:47.151Z,10.37
2018-04-02T01:06:14.730Z,10.26
2018-04-02T01:08:42.320Z,10.40
2018-04-02T01:11:09.951Z,10.30
2018-04-02T01:13:37.531Z,10.41
2018-04-02T01:16:05.131Z,10.30
2018-04-02T01:18:32.764Z,10.19
2018-04-02T01:21:00.342Z,10.18
2018-04-02T01:23:27.929Z,10.36
2018-04-02T01:25:55.598Z,10.35
2018-04-02T01:28:23.195Z,10.42
2018-04-02T01:30:50.791Z,10.28
2018-04-02T01:33:18.454Z,10.29
2018-04-02T01:35:46.053Z,10.31
2018-04-02T01:38:13.643Z,10.32
2018-04-02T01:40:41.227Z,10.39
2018-04-02T01:43:08.934Z,10.45
2018-04-02T01:45:36.529Z,10.38
2018-04-02T01:48:04.175Z,10.27
2018-04-02T01:50:31.774Z,10.26
2018-04-02T01:52:59.375Z,10.35
2018-04-02T01:55:27.018Z,10.21
2018-04-02T01:57:54.646Z,10.26
2018-04-02T02:00:22.251Z,10.16
2018-04-02T02:02:49.906Z,10.01
2018-04-02T02:05:17.486Z,9.98
2018-04-02T02:07:45.059Z,10.00
2018-04-02T02:10:12.674Z,10.01
2018-04-02T02:12:40.282Z,10.01
2018-04-02T02:15:07.862Z,10.03
2018-04-02T02:17:35.446Z,10.14
2018-04-02T02:20:03.033Z,10.15
2018-04-02T02:22:30.663Z,9.94
2018-04-02T02:24:58.256Z,10.05
2018-04-02T02:27:25.883Z,9.94
2018-04-02T02:29:53.487Z,9.96
2018-04-02T02:32:21.079Z,10.07
2018-04-02T02:34:48.704Z,10.03
2018-04-02T02:37:16.307Z,10.08
2018-04-02T02:39:43.894Z,10.05
2018-04-02T02:42:11.511Z,10.07
2018-04-02T02:44:39.134Z,10.00
2018-04-02T02:47:06.778Z,9.86
2018-04-02T02:49:34.375Z,9.85
2018-04-02T02:52:02.033Z,9.95
2018-04-02T02:54:29.618Z,9.78
2018-04-02T02:56:58.685Z,9.82
2018-04-02T02:59:26.558Z,9.66
2018-04-02T03:01:54.149Z,9.69
2018-04-02T03:04:21.759Z,9.76
2018-04-02T03:06:49.341Z,9.65
2018-04-02T03:09:16.975Z,9.61
2018-04-02T03:11:44.568Z,9.62
2018-04-02T03:14:12.191Z,9.64
2018-04-02T03:16:39.818Z,9.66
2018-04-02T03:19:07.399Z,9.61
2018-04-02T03:21:34.974Z,9.66
2018-04-02T03:24:02.558Z,9.53
2018-04-02T03:26:30.230Z,9.56
2018-04-02T03:28:57.906Z,9.51
2018-04-02T03:31:25.500Z,9.46
2018-04-02T03:33:53.086Z,9.52
2018-04-02T03:36:20.690Z,9.52
2018-04-02T03:38:48.276Z,9.60
2018-04-02T03:41:15.887Z,9.50
2018-04-02T03:43:43.507Z,9.59
2018-04-02T03:46:11.107Z,9.60
2018-04-02T03:48:38.717Z,9.74
2018-04-02T03:51:06.316Z,9.72
2018-04-02T03:53:33.979Z,9.63
2018-04-02T03:56:01.555Z,9.63
2018-04-02T03:58:29.143Z,9.70
2018-04-02T04:00:56.802Z,9.71
2018-04-02T04:03:24.414Z,9.81
2018-04-02T04:05:51.998Z,9.77
2018-04-02T04:08:19.634Z,9.66
2018-04-02T04:10:47.239Z,9.61
2018-04-02T04:13:14.829Z,9.55
2018-04-02T04:15:42.490Z,9.55
2018-04-02T04:18:10.107Z,9.55
2018-04-02T04:20:37.727Z,9.49
2018-04-02T04:23:05.857Z,9.47
2018-04-02T04:25:34.313Z,9.55
2018-04-02T04:28:02.567Z,9.50
2018-04-02T04:30:30.174Z,9.67
2018-04-02T04:33:01.123Z,9.43
2018-04-02T04:35:28.771Z,9.59
2018-04-02T04:37:56.605Z,9.51
2018-04-02T04:40:24.579Z,9.51
2018-04-02T04:42:52.468Z,9.55
2018-04-02T04:45:20.050Z,9.47
2018-04-02T04:47:47.667Z,9.46
2018-04-02T04:50:15.612Z,9.60
2018-04-02T04:52:43.240Z,9.64
2018-04-02T04:55:11.313Z,9.68
2018-04-02T04:57:39.460Z,9.70
2018-04-02T05:00:07.100Z,9.92
2018-04-02T05:02:34.727Z,10.04
2018-04-02T05:05:02.359Z,10.31
2018-04-02T05:07:29.950Z,10.60
2018-04-02T05:09:57.722Z,10.67
2018-04-02T05:12:25.374Z,10.86
2018-04-02T05:14:53.021Z,10.89
2018-04-02T05:17:20.618Z,11.21
2018-04-02T05:19:48.229Z,11.46
2018-04-02T05:22:15.882Z,11.58
2018-04-02T05:24:43.551Z,12.12
2018-04-02T05:27:11.159Z,12.38
2018-04-02T05:29:39.270Z,12.60
2018-04-02T05:32:06.910Z,12.19
2018-04-02T05:34:34.531Z,12.28
2018-04-02T05:37:02.192Z,11.88
2018-04-02T05:39:29.777Z,12.18
2018-04-02T05:41:57.484Z,12.45
2018-04-02T05:44:25.111Z,12.58
2018-04-02T05:46:52.754Z,12.36
2018-04-02T05:49:20.350Z,12.56
2018-04-02T05:51:47.985Z,12.57
2018-04-02T05:54:15.593Z,12.74
2018-04-02T05:56:43.221Z,12.31
2018-04-02T05:59:10.824Z,12.47
2018-04-02T06:01:38.430Z,13.06
2018-04-02T06:04:06.056Z,12.74
2018-04-02T06:06:33.663Z,12.99
2018-04-02T06:09:01.247Z,13.08
2018-04-02T06:11:28.908Z,13.20
2018-04-02T06:13:56.515Z,13.44
2018-04-02T06:16:24.099Z,13.74
2018-04-02T06:18:51.727Z,13.58
2018-04-02T06:21:19.335Z,13.43
2018-04-02T06:23:46.960Z,13.43
2018-04-02T06:26:14.600Z,13.82
2018-04-02T06:28:42.188Z,14.02
2018-04-02T06:31:09.790Z,14.02
2018-04-02T06:33:37.462Z,13.84
2018-04-02T06:36:05.056Z,13.84
2018-04-02T06:38:32.650Z,14.28
2018-04-02T06:41:00.283Z,14.37
2018-04-02T06:43:27.907Z,14.41
2018-04-02T06:45:55.508Z,14.72
2018-04-02T06:48:23.114Z,14.70
2018-04-02T06:50:50.721Z,14.71
2018-04-02T06:53:18.370Z,14.75
2018-04-02T06:55:45.991Z,14.57
2018-04-02T06:58:13.585Z,14.36
2018-04-02T07:00:41.214Z,14.02
2018-04-02T07:03:08.824Z,14.17
2018-04-02T07:05:36.448Z,13.89
2018-04-02T07:08:04.075Z,13.92
2018-04-02T07:10:31.683Z,13.86
2018-04-02T07:12:59.268Z,13.99
2018-04-02T07:15:26.875Z,14.00
2018-04-02T07:17:54.507Z,14.29
2018-04-02T07:20:22.125Z,14.60
2018-04-02T07:22:49.748Z,15.10
2018-04-02T07:25:17.366Z,15.53
2018-04-02T07:27:45.031Z,15.78
2018-04-02T07:30:12.630Z,16.21
2018-04-02T07:32:40.261Z,16.36
2018-04-02T07:35:07.844Z,16.67
2018-04-02T07:37:35.442Z,17.18
2018-04-02T07:40:03.073Z,17.35
2018-04-02T07:42:30.687Z,16.95
2018-04-02T07:44:58.267Z,16.85
2018-04-02T07:47:25.908Z,16.84
2018-04-02T07:49:53.638Z,17.02
2018-04-02T07:52:21.267Z,17.43
2018-04-02T07:54:48.847Z,17.67
2018-04-02T07:57:16.500Z,17.75
2018-04-02T07:59:44.121Z,17.67
2018-04-02T08:02:11.764Z,17.73
2018-04-02T08:04:39.354Z,17.76
2018-04-02T08:07:06.942Z,18.20
2018-04-02T08:09:34.574Z,17.66
2018-04-02T08:12:02.182Z,17.39
2018-04-02T08:14:29.824Z,16.93
2018-04-02T08:16:57.431Z,16.59
2018-04-02T08:19:25.028Z,16.72
2018-04-02T08:21:52.694Z,17.48
2018-04-02T08:24:20.284Z,17.24
2018-04-02T08:26:47.895Z,17.72
2018-04-02T08:29:15.522Z,18.04
2018-04-02T08:31:43.118Z,18.25
2018-04-02T08:34:10.741Z,18.74
2018-04-02T08:36:38.403Z,19.27
2018-04-02T08:39:06.068Z,18.69
2018-04-02T08:41:33.706Z,18.93
2018-04-02T08:44:01.367Z,18.63
2018-04-02T08:46:29.021Z,18.73
2018-04-02T08:48:56.648Z,18.46
2018-04-02T08:51:24.294Z,18.23
2018-04-02T08:53:51.879Z,18.17
2018-04-02T08:56:19.694Z,18.88
2018-04-02T08:58:47.311Z,19.40
2018-04-02T09:01:14.940Z,19.32
2018-04-02T09:03:42.522Z,20.13
2018-04-02T09:06:10.104Z,20.24
2018-04-02T09:11:04.615Z,19.85
2018-04-02T09:13:32.218Z,20.17
2018-04-02T09:15:59.830Z,20.34
2018-04-02T09:18:27.503Z,20.26
2018-04-02T09:20:55.117Z,20.56
2018-04-02T09:23:22.705Z,21.16
2018-04-02T09:25:50.326Z,20.82
2018-04-02T09:28:17.974Z,20.44
2018-04-02T09:30:45.571Z,20.98
2018-04-02T09:33:13.164Z,20.61
2018-04-02T09:35:40.805Z,20.62
2018-04-02T09:38:08.471Z,21.00
2018-04-02T09:40:36.058Z,21.19
2018-04-02T09:43:03.660Z,20.95
2018-04-02T09:45:31.333Z,21.41
2018-04-02T09:47:58.907Z,21.35
2018-04-02T09:50:26.494Z,21.41
2018-04-02T09:52:54.480Z,21.70
2018-04-02T09:55:22.190Z,22.21
2018-04-02T09:57:49.807Z,22.28
2018-04-02T10:00:17.452Z,21.31
2018-04-02T10:02:45.799Z,22.06
2018-04-02T10:05:13.444Z,22.80
2018-04-02T10:07:41.074Z,22.31
2018-04-02T10:10:08.688Z,21.91
2018-04-02T10:12:36.311Z,22.86
2018-04-02T10:15:03.907Z,22.82
2018-04-02T10:17:31.498Z,23.13
2018-04-02T10:19:59.184Z,22.14
2018-04-02T10:22:26.769Z,22.83
2018-04-02T10:24:54.367Z,23.58
2018-04-02T10:27:21.968Z,23.14
2018-04-02T10:29:49.566Z,23.68
2018-04-02T10:32:17.272Z,23.92
2018-04-02T10:34:44.856Z,23.97
2018-04-02T10:37:12.452Z,23.26
2018-04-02T10:39:40.091Z,23.10
2018-04-02T10:42:07.699Z,23.17
2018-04-02T10:44:35.386Z,23.09
2018-04-02T10:47:03.083Z,22.96
2018-04-02T10:49:30.697Z,22.69
2018-04-02T10:51:58.302Z,24.02
2018-04-02T10:54:25.952Z,24.29
2018-04-02T10:56:53.543Z,24.18
2018-04-02T10:59:21.180Z,22.99
2018-04-02T11:01:48.801Z,22.52
2018-04-02T11:04:16.414Z,22.30
2018-04-02T11:06:43.998Z,22.48
2018-04-02T11:09:11.592Z,22.67
2018-04-02T11:11:39.275Z,22.48
2018-04-02T11:14:06.882Z,23.17
2018-04-02T11:16:34.503Z,22.66
2018-04-02T11:19:02.083Z,23.45
2018-04-02T11:21:29.699Z,23.44
2018-04-02T11:23:57.318Z,23.22
2018-04-02T11:26:24.987Z,23.56
2018-04-02T11:28:52.582Z,23.42
2018-04-02T11:31:20.239Z,23.71
2018-04-02T11:33:47.839Z,23.93
2018-04-02T11:36:15.427Z,24.35
2018-04-02T11:38:43.013Z,24.13
2018-04-02T11:41:10.598Z,23.75
2018-04-02T11:43:38.233Z,23.53
2018-04-02T11:46:05.818Z,24.11
2018-04-02T11:48:33.398Z,23.49
2018-04-02T11:51:01.019Z,22.89
2018-04-02T11:53:28.626Z,21.69
2018-04-02T11:55:56.263Z,21.29
2018-04-02T11:58:23.845Z,20.99
2018-04-02T12:00:51.515Z,21.47
2018-04-02T12:03:19.139Z,21.78
2018-04-02T12:05:46.747Z,22.86
2018-04-02T12:08:14.330Z,21.80
2018-04-02T12:10:41.959Z,21.87
2018-04-02T12:13:09.564Z,22.70
2018-04-02T12:15:37.175Z,21.83
2018-04-02T12:18:04.793Z,22.30
2018-04-02T12:20:32.380Z,21.86
2018-04-02T12:23:00.039Z,22.76
2018-04-02T12:25:27.635Z,23.63
2018-04-02T12:27:55.243Z,24.05
2018-04-02T12:30:22.874Z,22.84
2018-04-02T12:32:50.473Z,24.01
2018-04-02T12:35:18.079Z,24.31
2018-04-02T12:37:45.763Z,23.60
2018-04-02T12:40:13.358Z,23.84
2018-04-02T12:42:40.962Z,23.39
2018-04-02T12:45:08.571Z,23.38
2018-04-02T12:47:36.207Z,23.39
2018-04-02T12:50:03.852Z,23.22
2018-04-02T12:52:31.447Z,22.69
2018-04-02T12:54:59.037Z,23.62
2018-04-02T12:57:26.663Z,23.88
2018-04-02T12:59:54.267Z,23.73
2018-04-02T13:02:21.891Z,23.37
2018-04-02T13:04:49.535Z,23.01
2018-04-02T13:07:17.133Z,23.41
2018-04-02T13:09:44.763Z,22.61
2018-04-02T13:12:12.340Z,22.95
2018-04-02T13:14:39.923Z,22.22
2018-04-02T13:17:07.555Z,22.55
2018-04-02T13:19:35.265Z,22.30
2018-04-02T13:22:02.884Z,23.27
2018-04-02T13:24:30.484Z,23.31
2018-04-02T13:26:58.084Z,22.62
2018-04-02T13:29:25.750Z,22.74
2018-04-02T13:34:45.675Z,22.46
2018-04-02T13:37:13.278Z,22.33
2018-04-02T13:39:40.870Z,22.33
2018-04-02T13:42:08.547Z,21.84
2018-04-02T13:44:36.153Z,21.34
2018-04-02T13:47:03.743Z,21.08
2018-04-02T13:49:31.373Z,21.16
2018-04-02T13:51:58.973Z,20.18
2018-04-02T13:54:26.593Z,20.68
2018-04-02T13:56:54.270Z,20.36
2018-04-02T13:59:21.853Z,20.23
2018-04-02T14:01:49.446Z,20.24
2018-04-02T14:04:17.067Z,20.08
2018-04-02T14:06:44.682Z,19.85
2018-04-02T14:09:12.308Z,19.83
2018-04-02T14:11:40.047Z,19.79
2018-04-02T14:14:07.650Z,19.74
2018-04-02T14:16:35.247Z,19.58
2018-04-02T14:19:02.923Z,19.61
2018-04-02T14:21:30.532Z,19.54
2018-04-02T14:23:58.143Z,19.57
2018-04-02T14:26:25.770Z,19.13
2018-04-02T14:28:53.394Z,19.33
2018-04-02T14:31:20.987Z,19.40
2018-04-02T14:33:48.606Z,19.34
2018-04-02T14:36:16.226Z,19.37
2018-04-02T14:38:43.826Z,19.20
2018-04-02T14:41:11.483Z,19.06
2018-04-02T14:43:39.107Z,19.05
2018-04-02T14:46:06.715Z,19.17
2018-04-02T14:48:34.339Z,19.52
2018-04-02T14:51:01.928Z,19.95
2018-04-02T14:53:32.015Z,20.51
2018-04-02T14:55:59.644Z,19.88
2018-04-02T14:58:27.223Z,19.42
2018-04-02T15:00:54.802Z,19.10
2018-04-02T15:03:22.392Z,19.00
2018-04-02T15:05:50.239Z,18.99
2018-04-02T15:08:17.880Z,18.89
2018-04-02T15:10:45.473Z,18.79
2018-04-02T15:13:13.088Z,18.57
2018-04-02T15:15:40.707Z,18.90
2018-04-02T15:18:08.329Z,18.91
2018-04-02T15:20:35.926Z,18.61
2018-04-02T15:23:03.571Z,18.43
2018-04-02T15:25:31.181Z,18.18
2018-04-02T15:27:58.782Z,17.98
2018-04-02T15:30:26.477Z,17.95
2018-04-02T15:32:54.082Z,17.94
2018-04-02T15:35:21.687Z,17.96
2018-04-02T15:37:49.350Z,17.81
2018-04-02T15:40:16.944Z,17.75
2018-04-02T15:42:44.595Z,17.50
2018-04-02T15:45:12.195Z,17.56
2018-04-02T15:47:39.786Z,17.56
2018-04-02T15:50:07.455Z,17.45
2018-04-02T15:52:35.047Z,17.53
2018-04-02T15:55:02.654Z,17.43
2018-04-02T15:57:30.275Z,17.39
2018-04-02T15:59:57.882Z,17.37
2018-04-02T16:02:25.463Z,17.20
2018-04-02T16:04:53.115Z,17.06
2018-04-02T16:07:20.705Z,17.01
2018-04-02T16:09:48.291Z,17.02
2018-04-02T16:12:15.891Z,16.94
2018-04-02T16:14:43.492Z,16.96
2018-04-02T16:17:11.223Z,16.79
2018-04-02T16:19:38.772Z,16.73
2018-04-02T16:22:06.353Z,16.76
2018-04-02T16:24:33.999Z,16.60
2018-04-02T16:27:01.579Z,16.70
2018-04-02T16:29:29.178Z,16.50
2018-04-02T16:31:56.851Z,16.44
2018-04-02T16:34:24.454Z,16.46
2018-04-02T16:36:52.106Z,16.49
2018-04-02T16:39:19.691Z,16.35
2018-04-02T16:41:47.270Z,16.10
2018-04-02T16:44:14.943Z,16.16
2018-04-02T16:46:42.540Z,16.08
2018-04-02T16:49:10.142Z,16.06
2018-04-02T16:51:37.743Z,15.93
2018-04-02T16:54:05.315Z,15.94
2018-04-02T16:56:32.988Z,15.86
2018-04-02T16:59:00.626Z,15.71
2018-04-02T17:01:28.308Z,15.69
2018-04-02T17:03:55.938Z,15.64
2018-04-02T17:06:23.518Z,15.66
2018-04-02T17:08:51.103Z,15.50
2018-04-02T17:11:18.753Z,15.67
2018-04-02T17:13:46.352Z,15.51
2018-04-02T17:16:13.936Z,15.64
2018-04-02T17:18:42.852Z,15.35
2018-04-02T17:21:10.447Z,15.41
2018-04-02T17:23:38.044Z,15.50
2018-04-02T17:26:05.694Z,15.26
2018-04-02T17:28:33.324Z,15.13
2018-04-02T17:31:00.919Z,15.10
2018-04-02T17:33:28.558Z,15.13
2018-04-02T17:35:56.181Z,14.98
2018-04-02T17:38:23.780Z,15.12
2018-04-02T17:40:51.400Z,15.04
2018-04-02T17:43:18.982Z,14.81
2018-04-02T17:45:46.579Z,14.87
2018-04-02T17:48:14.178Z,14.80
2018-04-02T17:50:41.758Z,14.80
2018-04-02T17:53:09.387Z,14.83
2018-04-02T17:55:36.985Z,14.73
2018-04-02T17:58:04.618Z,14.72
2018-04-02T18:00:32.244Z,14.73
2018-04-02T18:02:59.840Z,14.82
2018-04-02T18:05:27.501Z,14.89
2018-04-02T18:07:55.111Z,14.88
2018-04-02T18:10:22.751Z,15.02
2018-04-02T18:12:50.431Z,15.00
2018-04-02T18:15:18.041Z,14.97
2018-04-02T18:17:45.670Z,14.89
2018-04-02T18:20:13.302Z,14.62
2018-04-02T18:22:40.925Z,14.60
2018-04-02T18:25:08.543Z,14.39
2018-04-02T18:27:36.167Z,13.94
2018-04-02T18:30:03.817Z,14.00
2018-04-02T18:32:31.416Z,13.91
2018-04-02T18:34:59.007Z,14.00
2018-04-02T18:37:26.650Z,13.89
2018-04-02T18:39:54.254Z,14.03
2018-04-02T18:42:21.838Z,13.85
2018-04-02T18:44:49.443Z,13.76
2018-04-02T18:47:17.056Z,13.70
2018-04-02T18:49:44.699Z,13.72
2018-04-02T18:52:12.283Z,13.80
2018-04-02T18:54:39.883Z,13.65
2018-04-02T18:57:07.497Z,13.60
2018-04-02T18:59:35.088Z,13.48
2018-04-02T19:02:02.807Z,13.35
2018-04-02T19:04:30.519Z,13.27
2018-04-02T19:06:58.131Z,13.29
2018-04-02T19:09:25.770Z,13.21
2018-04-02T19:11:53.382Z,13.23
2018-04-02T19:14:20.980Z,13.12
2018-04-02T19:16:48.619Z,13.13
2018-04-02T19:19:16.230Z,12.90
2018-04-02T19:21:43.866Z,12.91
2018-04-02T19:24:12.643Z,12.87
2018-04-02T19:26:40.235Z,12.83
2018-04-02T19:29:07.878Z,12.95
2018-04-02T19:31:35.475Z,12.96
2018-04-02T19:34:03.083Z,13.15
2018-04-02T19:36:30.738Z,13.10
2018-04-02T19:38:58.375Z,12.78
2018-04-02T19:41:25.998Z,12.54
2018-04-02T19:43:53.648Z,12.57
2018-04-02T19:46:21.247Z,12.65
2018-04-02T19:48:48.933Z,12.79
2018-04-02T19:51:16.622Z,12.77
2018-04-02T19:53:44.261Z,12.95
2018-04-02T19:56:11.860Z,12.86
2018-04-02T19:58:39.499Z,12.70
2018-04-02T20:01:07.096Z,12.73
2018-04-02T20:03:34.707Z,12.72
2018-04-02T20:06:02.322Z,12.60
2018-04-02T20:08:29.915Z,12.37
2018-04-02T20:10:57.585Z,12.49
2018-04-02T20:13:25.231Z,12.50
2018-04-02T20:15:52.820Z,12.54
2018-04-02T20:18:20.491Z,12.50
2018-04-02T20:20:48.084Z,12.30
2018-04-02T20:23:15.715Z,12.16
2018-04-02T20:25:43.379Z,12.06
2018-04-02T20:28:11.012Z,12.22
2018-04-02T20:30:38.600Z,12.08
2018-04-02T20:33:06.239Z,12.42
2018-04-02T20:35:33.863Z,12.48
2018-04-02T20:38:01.463Z,12.34
2018-04-02T20:40:29.057Z,12.31
2018-04-02T20:42:56.646Z,12.25
2018-04-02T20:45:24.270Z,12.31
2018-04-02T20:47:51.991Z,12.25
2018-04-02T20:50:19.789Z,12.19
2018-04-02T20:52:47.454Z,12.13
2018-04-02T20:55:15.071Z,12.03
2018-04-02T20:57:43.285Z,12.00
2018-04-02T21:00:10.360Z,12.04
2018-04-02T21:02:37.943Z,12.07
2018-04-02T21:05:05.675Z,12.06
2018-04-02T21:07:33.292Z,11.89
2018-04-02T21:10:00.891Z,12.03
2018-04-02T21:12:28.561Z,12.05
2018-04-02T21:14:56.191Z,12.06
2018-04-02T21:17:23.779Z,12.15
2018-04-02T21:19:51.401Z,12.02
2018-04-02T21:22:19.033Z,11.98
2018-04-02T21:24:46.676Z,11.96
2018-04-02T21:27:14.320Z,12.13
2018-04-02T21:29:41.958Z,12.16
2018-04-02T21:32:09.574Z,11.95
2018-04-02T21:34:37.167Z,11.70
2018-04-02T21:37:04.800Z,11.43
2018-04-02T21:39:32.400Z,11.37
2018-04-02T21:42:00.007Z,11.31
2018-04-02T21:44:27.619Z,11.28
2018-04-02T21:46:55.206Z,11.32
2018-04-02T21:49:22.854Z,11.36
2018-04-02T21:51:50.479Z,11.29
2018-04-02T21:54:18.086Z,11.41
2018-04-02T21:56:45.754Z,11.21
2018-04-02T21:59:13.343Z,11.14
2018-04-02T22:01:40.929Z,11.15
2018-04-02T22:04:08.591Z,11.04
2018-04-02T22:06:48.410Z,11.00
2018-04-02T22:09:16.045Z,11.08
2018-04-02T22:11:43.637Z,11.09
2018-04-02T22:14:11.231Z,11.14
2018-04-02T22:16:38.883Z,11.36
2018-04-02T22:19:06.531Z,11.34
2018-04-02T22:21:34.126Z,11.17
2018-04-02T22:24:01.724Z,10.90
2018-04-02T22:26:29.322Z,10.98
2018-04-02T22:28:56.964Z,10.97
2018-04-02T22:31:24.575Z,10.82
2018-04-02T22:33:52.262Z,10.94
2018-04-02T22:36:19.939Z,10.85
2018-04-02T22:38:47.570Z,10.84
2018-04-02T22:41:18.335Z,10.81
2018-04-02T22:43:45.931Z,10.76
2018-04-02T22:46:13.563Z,10.64
2018-04-02T22:48:41.263Z,10.69
2018-04-02T22:51:08.896Z,10.57
2018-04-02T22:53:36.491Z,10.61
2018-04-02T22:56:04.119Z,10.70
2018-04-02T22:58:31.731Z,10.62
2018-04-02T23:00:59.359Z,10.52
2018-04-02T23:03:27.022Z,10.87
2018-04-02T23:05:54.622Z,10.73
2018-04-02T23:08:22.202Z,11.03
2018-04-02T23:10:49.832Z,10.64
2018-04-02T23:13:17.433Z,10.43
2018-04-02T23:15:45.029Z,10.39
2018-04-02T23:18:12.662Z,10.31
2018-04-02T23:20:40.262Z,10.49
2018-04-02T23:23:07.878Z,10.38
2018-04-02T23:25:35.494Z,10.21
2018-04-02T23:28:03.084Z,10.40
2018-04-02T23:30:30.679Z,10.45
2018-04-02T23:32:58.302Z,10.25
2018-04-02T23:35:25.886Z,10.33
2018-04-02T23:37:53.529Z,10.38
2018-04-02T23:40:21.135Z,10.23
2018-04-02T23:42:48.734Z,10.24
2018-04-02T23:45:16.323Z,10.21
2018-04-02T23:47:43.939Z,10.31
2018-04-02T23:50:11.574Z,10.34
2018-04-02T23:52:39.278Z,10.07
2018-04-02T23:55:06.894Z,10.15
2018-04-02T23:57:34.527Z,10.07
